Terminal Aerodrome Forecast
Issued by NWS El Paso, TX

Home | Current Version | Previous Version | Text Only | Print | Product List | Glossary On
Versions: 1 2 3 4 5 6 7 8 9 10 11 12 13 14 15
000
FTUS44 KEPZ 011100 RRA
TAFELP
TAF
KELP 011158Z 0112/0212 15005KT P6SM SCT250
     FM011800 22014KT P6SM FEW150 SCT250
     FM020600 15006KT P6SM BKN100=

USA.gov is the U.S. government's official web portal to all federal, state and local government web resources and services.